Airport View

Enter AWOS ICAO identifier for current METAR.

ex. KFNL

KGKT 080455Z AUTO 00000KT 10SM CLR 23/22 A2998 RMK A01

8 Jul 2020 05:18

Frequency: 126.875

Phone: 865-429-5401

Other Area AWOS: KDKX - KMOR - KTYS - KOQT

TAF KTYS 072320Z 0800/0824 06004KT P6SM VCSH BKN090 TEMPO 0800/0803 4SM -SHRA BR OVC025 FM080300 00000KT P6SM BKN080 FM081000 00000KT 4SM BR BKN080 FM081200 00000KT P6SM BKN080 PROB30 0816/0822 4SM TSRA BR BKN045CB